sensor_id;sensor_type;location;lat;lon;timestamp;temperature;humidity
17851;DHT22;9051;51.548;14.348;2022-12-18T00:01:33;-2.90;99.90
17851;DHT22;9051;51.548;14.348;2022-12-18T00:04:07;-2.90;99.90
17851;DHT22;9051;51.548;14.348;2022-12-18T00:06:47;-2.90;99.90
17851;DHT22;9051;51.548;14.348;2022-12-18T00:09:19;-2.80;99.90
17851;DHT22;9051;51.548;14.348;2022-12-18T00:11:51;-2.80;99.90
17851;DHT22;9051;51.548;14.348;2022-12-18T00:14:23;-2.70;99.90
17851;DHT22;9051;51.548;14.348;2022-12-18T00:16:55;-2.80;99.90
17851;DHT22;9051;51.548;14.348;2022-12-18T00:19:28;-2.80;99.90
17851;DHT22;9051;51.548;14.348;2022-12-18T00:22:02;-2.70;99.90
17851;DHT22;9051;51.548;14.348;2022-12-18T00:24:33;-2.70;99.90
17851;DHT22;9051;51.548;14.348;2022-12-18T00:27:05;-2.70;99.90
17851;DHT22;9051;51.548;14.348;2022-12-18T00:29:37;-2.70;99.90
17851;DHT22;9051;51.548;14.348;2022-12-18T00:32:12;-2.70;99.90
17851;DHT22;9051;51.548;14.348;2022-12-18T00:34:44;-2.70;99.90
17851;DHT22;9051;51.548;14.348;2022-12-18T00:37:17;-2.70;99.90
17851;DHT22;9051;51.548;14.348;2022-12-18T00:39:49;-2.70;99.90
17851;DHT22;9051;51.548;14.348;2022-12-18T00:42:21;-2.70;99.90
17851;DHT22;9051;51.548;14.348;2022-12-18T00:45:10;-2.70;99.90
17851;DHT22;9051;51.548;14.348;2022-12-18T00:47:42;-2.60;99.90
17851;DHT22;9051;51.548;14.348;2022-12-18T00:50:14;-2.60;99.90
17851;DHT22;9051;51.548;14.348;2022-12-18T00:52:48;-2.60;99.90
17851;DHT22;9051;51.548;14.348;2022-12-18T00:55:19;-2.60;99.90
17851;DHT22;9051;51.548;14.348;2022-12-18T00:57:51;-2.70;99.90
17851;DHT22;9051;51.548;14.348;2022-12-18T01:00:23;-2.70;99.90
17851;DHT22;9051;51.548;14.348;2022-12-18T01:02:55;-2.70;99.90
17851;DHT22;9051;51.548;14.348;2022-12-18T01:05:29;-2.60;99.90
17851;DHT22;9051;51.548;14.348;2022-12-18T01:08:02;-2.60;99.90
17851;DHT22;9051;51.548;14.348;2022-12-18T01:10:34;-2.60;99.90
17851;DHT22;9051;51.548;14.348;2022-12-18T01:13:06;-2.50;99.90
17851;DHT22;9051;51.548;14.348;2022-12-18T01:15:38;-2.60;99.90
17851;DHT22;9051;51.548;14.348;2022-12-18T01:18:10;-2.60;99.90
17851;DHT22;9051;51.548;14.348;2022-12-18T01:20:42;-2.60;99.90
17851;DHT22;9051;51.548;14.348;2022-12-18T01:23:15;-2.60;99.90
17851;DHT22;9051;51.548;14.348;2022-12-18T01:25:47;-2.60;99.90
17851;DHT22;9051;51.548;14.348;2022-12-18T01:28:19;-2.50;99.90
17851;DHT22;9051;51.548;14.348;2022-12-18T01:30:51;-2.50;99.90
17851;DHT22;9051;51.548;14.348;2022-12-18T01:33:25;-2.60;99.90
17851;DHT22;9051;51.548;14.348;2022-12-18T01:35:57;-2.50;99.90
17851;DHT22;9051;51.548;14.348;2022-12-18T01:38:30;-2.50;99.90
17851;DHT22;9051;51.548;14.348;2022-12-18T01:41:03;-2.60;99.90
17851;DHT22;9051;51.548;14.348;2022-12-18T01:43:47;-2.60;99.90
17851;DHT22;9051;51.548;14.348;2022-12-18T01:46:21;-2.60;99.90
17851;DHT22;9051;51.548;14.348;2022-12-18T01:49:01;-2.50;99.90
17851;DHT22;9051;51.548;14.348;2022-12-18T01:51:33;-2.50;99.90
17851;DHT22;9051;51.548;14.348;2022-12-18T01:54:06;-2.50;99.90
17851;DHT22;9051;51.548;14.348;2022-12-18T01:56:39;-2.50;99.90
17851;DHT22;9051;51.548;14.348;2022-12-18T01:59:11;-2.50;99.90
17851;DHT22;9051;51.548;14.348;2022-12-18T02:01:44;-2.50;99.90
17851;DHT22;9051;51.548;14.348;2022-12-18T02:04:21;-2.50;99.90
17851;DHT22;9051;51.548;14.348;2022-12-18T02:06:58;-2.50;99.90
17851;DHT22;9051;51.548;14.348;2022-12-18T02:09:40;-2.50;99.90
17851;DHT22;9051;51.548;14.348;2022-12-18T02:12:17;-2.50;99.90
17851;DHT22;9051;51.548;14.348;2022-12-18T02:14:57;-2.50;99.90
17851;DHT22;9051;51.548;14.348;2022-12-18T02:17:35;-2.50;99.90
17851;DHT22;9051;51.548;14.348;2022-12-18T02:20:13;-2.50;99.90
17851;DHT22;9051;51.548;14.348;2022-12-18T02:22:59;-2.50;99.90
17851;DHT22;9051;51.548;14.348;2022-12-18T02:28:23;-2.50;99.90
17851;DHT22;9051;51.548;14.348;2022-12-18T02:31:04;-2.50;99.90
17851;DHT22;9051;51.548;14.348;2022-12-18T02:33:40;-2.50;99.90
17851;DHT22;9051;51.548;14.348;2022-12-18T02:36:16;-2.50;99.90
17851;DHT22;9051;51.548;14.348;2022-12-18T02:38:51;-2.50;99.90
17851;DHT22;9051;51.548;14.348;2022-12-18T02:41:23;-2.50;99.90
17851;DHT22;9051;51.548;14.348;2022-12-18T02:44:00;-2.50;99.90
17851;DHT22;9051;51.548;14.348;2022-12-18T02:46:37;-2.50;99.90
17851;DHT22;9051;51.548;14.348;2022-12-18T02:49:28;-2.50;99.90
17851;DHT22;9051;51.548;14.348;2022-12-18T02:52:10;-2.50;99.90
17851;DHT22;9051;51.548;14.348;2022-12-18T02:55:05;-2.50;99.90
17851;DHT22;9051;51.548;14.348;2022-12-18T02:57:44;-2.50;99.90
17851;DHT22;9051;51.548;14.348;2022-12-18T03:00:20;-2.50;99.90
17851;DHT22;9051;51.548;14.348;2022-12-18T03:02:57;-2.50;99.90
17851;DHT22;9051;51.548;14.348;2022-12-18T03:05:35;-2.50;99.90
17851;DHT22;9051;51.548;14.348;2022-12-18T03:08:12;-2.50;99.90
17851;DHT22;9051;51.548;14.348;2022-12-18T03:10:52;-2.40;99.90
17851;DHT22;9051;51.548;14.348;2022-12-18T03:13:35;-2.40;99.90
17851;DHT22;9051;51.548;14.348;2022-12-18T03:16:11;-2.40;99.90
17851;DHT22;9051;51.548;14.348;2022-12-18T03:18:48;-2.40;99.90
17851;DHT22;9051;51.548;14.348;2022-12-18T03:21:26;-2.40;99.90
17851;DHT22;9051;51.548;14.348;2022-12-18T03:23:59;-2.40;99.90
17851;DHT22;9051;51.548;14.348;2022-12-18T03:26:33;-2.40;99.90
17851;DHT22;9051;51.548;14.348;2022-12-18T03:29:09;-2.40;99.90
17851;DHT22;9051;51.548;14.348;2022-12-18T03:31:51;-2.40;99.90
17851;DHT22;9051;51.548;14.348;2022-12-18T03:34:29;-2.40;99.90
17851;DHT22;9051;51.548;14.348;2022-12-18T03:37:05;-2.40;99.90
17851;DHT22;9051;51.548;14.348;2022-12-18T03:39:38;-2.40;99.90
17851;DHT22;9051;51.548;14.348;2022-12-18T03:42:16;-2.40;99.90
17851;DHT22;9051;51.548;14.348;2022-12-18T03:45:01;-2.40;99.90
17851;DHT22;9051;51.548;14.348;2022-12-18T03:47:42;-2.40;99.90
17851;DHT22;9051;51.548;14.348;2022-12-18T03:50:22;-2.40;99.90
17851;DHT22;9051;51.548;14.348;2022-12-18T03:52:58;-2.40;99.90
17851;DHT22;9051;51.548;14.348;2022-12-18T03:55:34;-2.40;99.90
17851;DHT22;9051;51.548;14.348;2022-12-18T03:58:11;-2.40;99.90
17851;DHT22;9051;51.548;14.348;2022-12-18T04:00:57;-2.40;99.90
17851;DHT22;9051;51.548;14.348;2022-12-18T04:03:34;-2.50;99.90
17851;DHT22;9051;51.548;14.348;2022-12-18T04:06:07;-2.40;99.90
17851;DHT22;9051;51.548;14.348;2022-12-18T04:08:40;-2.50;99.90
17851;DHT22;9051;51.548;14.348;2022-12-18T04:11:15;-2.40;99.90
17851;DHT22;9051;51.548;14.348;2022-12-18T04:13:49;-2.40;99.90
17851;DHT22;9051;51.548;14.348;2022-12-18T04:16:26;-2.40;99.90
17851;DHT22;9051;51.548;14.348;2022-12-18T04:19:05;-2.40;99.90
17851;DHT22;9051;51.548;14.348;2022-12-18T04:21:43;-2.50;99.90
17851;DHT22;9051;51.548;14.348;2022-12-18T04:24:18;-2.50;99.90
17851;DHT22;9051;51.548;14.348;2022-12-18T04:27:00;-2.40;99.90
17851;DHT22;9051;51.548;14.348;2022-12-18T04:29:37;-2.40;99.90
17851;DHT22;9051;51.548;14.348;2022-12-18T04:32:10;-2.40;99.90
17851;DHT22;9051;51.548;14.348;2022-12-18T04:34:44;-2.50;99.90
17851;DHT22;9051;51.548;14.348;2022-12-18T04:37:17;-2.40;99.90
17851;DHT22;9051;51.548;14.348;2022-12-18T04:39:50;-2.40;99.90
17851;DHT22;9051;51.548;14.348;2022-12-18T04:42:30;-2.40;99.90
17851;DHT22;9051;51.548;14.348;2022-12-18T04:45:03;-2.40;99.90
17851;DHT22;9051;51.548;14.348;2022-12-18T04:47:35;-2.40;99.90
17851;DHT22;9051;51.548;14.348;2022-12-18T04:50:09;-2.40;99.90
17851;DHT22;9051;51.548;14.348;2022-12-18T04:52:42;-2.40;99.90
17851;DHT22;9051;51.548;14.348;2022-12-18T04:55:14;-2.40;99.90
17851;DHT22;9051;51.548;14.348;2022-12-18T04:57:47;-2.40;99.90
17851;DHT22;9051;51.548;14.348;2022-12-18T05:00:20;-2.40;99.90
17851;DHT22;9051;51.548;14.348;2022-12-18T05:02:53;-2.40;99.90
17851;DHT22;9051;51.548;14.348;2022-12-18T05:05:27;-2.30;99.90
17851;DHT22;9051;51.548;14.348;2022-12-18T05:07:59;-2.40;99.90
17851;DHT22;9051;51.548;14.348;2022-12-18T05:10:33;-2.40;99.90
17851;DHT22;9051;51.548;14.348;2022-12-18T05:13:05;-2.40;99.90
17851;DHT22;9051;51.548;14.348;2022-12-18T05:15:37;-2.50;99.90
17851;DHT22;9051;51.548;14.348;2022-12-18T05:18:09;-2.50;99.90
17851;DHT22;9051;51.548;14.348;2022-12-18T05:20:43;-2.50;99.90
17851;DHT22;9051;51.548;14.348;2022-12-18T05:23:16;-2.50;99.90
17851;DHT22;9051;51.548;14.348;2022-12-18T05:25:52;-2.50;99.90
17851;DHT22;9051;51.548;14.348;2022-12-18T05:28:25;-2.50;99.90
17851;DHT22;9051;51.548;14.348;2022-12-18T05:31:00;-2.50;99.90
17851;DHT22;9051;51.548;14.348;2022-12-18T05:33:34;-2.50;99.90
17851;DHT22;9051;51.548;14.348;2022-12-18T05:36:09;-2.50;99.90
17851;DHT22;9051;51.548;14.348;2022-12-18T05:38:42;-2.50;99.90
17851;DHT22;9051;51.548;14.348;2022-12-18T05:41:14;-2.50;99.90
17851;DHT22;9051;51.548;14.348;2022-12-18T05:43:46;-2.60;99.90
17851;DHT22;9051;51.548;14.348;2022-12-18T05:46:20;-2.60;99.90
17851;DHT22;9051;51.548;14.348;2022-12-18T05:48:52;-2.60;99.90
17851;DHT22;9051;51.548;14.348;2022-12-18T05:51:28;-2.70;99.90
17851;DHT22;9051;51.548;14.348;2022-12-18T05:54:02;-2.70;99.90
17851;DHT22;9051;51.548;14.348;2022-12-18T05:56:35;-2.70;99.90
17851;DHT22;9051;51.548;14.348;2022-12-18T05:59:07;-2.70;99.90
17851;DHT22;9051;51.548;14.348;2022-12-18T06:01:39;-2.70;99.90
17851;DHT22;9051;51.548;14.348;2022-12-18T06:04:11;-2.70;99.90
17851;DHT22;9051;51.548;14.348;2022-12-18T06:06:44;-2.70;99.90
17851;DHT22;9051;51.548;14.348;2022-12-18T06:09:17;-2.80;99.90
17851;DHT22;9051;51.548;14.348;2022-12-18T06:11:51;-2.80;99.90
17851;DHT22;9051;51.548;14.348;2022-12-18T06:14:23;-2.80;99.90
17851;DHT22;9051;51.548;14.348;2022-12-18T06:16:56;-2.80;99.90
17851;DHT22;9051;51.548;14.348;2022-12-18T06:19:28;-2.80;99.90
17851;DHT22;9051;51.548;14.348;2022-12-18T06:22:02;-2.80;99.90
17851;DHT22;9051;51.548;14.348;2022-12-18T06:24:34;-2.80;99.90
17851;DHT22;9051;51.548;14.348;2022-12-18T06:27:06;-2.80;99.90
17851;DHT22;9051;51.548;14.348;2022-12-18T06:29:38;-2.80;99.90
17851;DHT22;9051;51.548;14.348;2022-12-18T06:32:10;-2.80;99.90
17851;DHT22;9051;51.548;14.348;2022-12-18T06:34:42;-2.90;99.90
17851;DHT22;9051;51.548;14.348;2022-12-18T06:37:15;-2.80;99.90
17851;DHT22;9051;51.548;14.348;2022-12-18T06:39:47;-2.90;99.90
17851;DHT22;9051;51.548;14.348;2022-12-18T06:42:22;-2.90;99.90
17851;DHT22;9051;51.548;14.348;2022-12-18T06:44:55;-2.90;99.90
17851;DHT22;9051;51.548;14.348;2022-12-18T06:47:28;-2.90;99.90
17851;DHT22;9051;51.548;14.348;2022-12-18T06:50:00;-2.90;99.90
17851;DHT22;9051;51.548;14.348;2022-12-18T06:52:34;-2.90;99.90
17851;DHT22;9051;51.548;14.348;2022-12-18T06:55:10;-2.90;99.90
17851;DHT22;9051;51.548;14.348;2022-12-18T06:57:43;-3.00;99.90
17851;DHT22;9051;51.548;14.348;2022-12-18T07:00:15;-3.00;99.90
17851;DHT22;9051;51.548;14.348;2022-12-18T07:02:47;-3.00;99.90
17851;DHT22;9051;51.548;14.348;2022-12-18T07:05:19;-2.90;99.90
17851;DHT22;9051;51.548;14.348;2022-12-18T07:07:54;-2.90;99.90
17851;DHT22;9051;51.548;14.348;2022-12-18T07:10:26;-2.90;99.90
17851;DHT22;9051;51.548;14.348;2022-12-18T07:12:58;-2.90;99.90
17851;DHT22;9051;51.548;14.348;2022-12-18T07:15:30;-3.00;99.90
17851;DHT22;9051;51.548;14.348;2022-12-18T07:18:02;-3.00;99.90
17851;DHT22;9051;51.548;14.348;2022-12-18T07:20:34;-3.00;99.90
17851;DHT22;9051;51.548;14.348;2022-12-18T07:23:08;-2.90;99.90
17851;DHT22;9051;51.548;14.348;2022-12-18T07:25:40;-2.90;99.90
17851;DHT22;9051;51.548;14.348;2022-12-18T07:28:12;-2.90;99.90
17851;DHT22;9051;51.548;14.348;2022-12-18T07:30:45;-2.90;99.90
17851;DHT22;9051;51.548;14.348;2022-12-18T07:33:17;-2.80;99.90
17851;DHT22;9051;51.548;14.348;2022-12-18T07:35:49;-2.90;99.90
17851;DHT22;9051;51.548;14.348;2022-12-18T07:38:23;-2.90;99.90
17851;DHT22;9051;51.548;14.348;2022-12-18T07:40:59;-2.80;99.90
17851;DHT22;9051;51.548;14.348;2022-12-18T07:43:32;-2.80;99.90
17851;DHT22;9051;51.548;14.348;2022-12-18T07:46:04;-2.70;99.90
17851;DHT22;9051;51.548;14.348;2022-12-18T07:48:36;-2.70;99.90
17851;DHT22;9051;51.548;14.348;2022-12-18T07:51:12;-2.80;99.90
17851;DHT22;9051;51.548;14.348;2022-12-18T07:53:45;-2.80;99.90
17851;DHT22;9051;51.548;14.348;2022-12-18T07:56:17;-2.90;99.90
17851;DHT22;9051;51.548;14.348;2022-12-18T07:58:49;-2.80;99.90
17851;DHT22;9051;51.548;14.348;2022-12-18T08:01:21;-2.80;99.90
17851;DHT22;9051;51.548;14.348;2022-12-18T08:03:53;-2.90;99.90
17851;DHT22;9051;51.548;14.348;2022-12-18T08:06:25;-2.80;99.90
17851;DHT22;9051;51.548;14.348;2022-12-18T08:08:58;-2.80;99.90
17851;DHT22;9051;51.548;14.348;2022-12-18T08:11:30;-2.80;99.90
17851;DHT22;9051;51.548;14.348;2022-12-18T08:14:02;-2.70;99.90
17851;DHT22;9051;51.548;14.348;2022-12-18T08:16:34;-2.70;99.90
17851;DHT22;9051;51.548;14.348;2022-12-18T08:19:06;-2.70;99.90
17851;DHT22;9051;51.548;14.348;2022-12-18T08:21:41;-2.70;99.90
17851;DHT22;9051;51.548;14.348;2022-12-18T08:24:14;-2.70;99.90
17851;DHT22;9051;51.548;14.348;2022-12-18T08:26:49;-2.70;99.90
17851;DHT22;9051;51.548;14.348;2022-12-18T08:29:21;-2.70;99.90
17851;DHT22;9051;51.548;14.348;2022-12-18T08:31:53;-2.70;99.90
17851;DHT22;9051;51.548;14.348;2022-12-18T08:34:25;-2.70;99.90
17851;DHT22;9051;51.548;14.348;2022-12-18T08:36:57;-2.70;99.90
17851;DHT22;9051;51.548;14.348;2022-12-18T08:39:30;-2.80;99.90
17851;DHT22;9051;51.548;14.348;2022-12-18T08:42:02;-2.80;99.90
17851;DHT22;9051;51.548;14.348;2022-12-18T08:44:52;-2.90;99.90
17851;DHT22;9051;51.548;14.348;2022-12-18T08:47:24;-2.90;99.90
17851;DHT22;9051;51.548;14.348;2022-12-18T08:49:56;-2.90;99.90
17851;DHT22;9051;51.548;14.348;2022-12-18T08:52:28;-2.80;99.90
17851;DHT22;9051;51.548;14.348;2022-12-18T08:55:05;-2.80;99.90
17851;DHT22;9051;51.548;14.348;2022-12-18T08:57:37;-2.90;99.90
17851;DHT22;9051;51.548;14.348;2022-12-18T09:00:10;-2.90;99.90
17851;DHT22;9051;51.548;14.348;2022-12-18T09:02:43;-2.90;99.90
17851;DHT22;9051;51.548;14.348;2022-12-18T09:05:15;-2.80;99.90
17851;DHT22;9051;51.548;14.348;2022-12-18T09:07:47;-2.80;99.90
17851;DHT22;9051;51.548;14.348;2022-12-18T09:10:21;-2.80;99.90
17851;DHT22;9051;51.548;14.348;2022-12-18T09:12:52;-2.80;99.90
17851;DHT22;9051;51.548;14.348;2022-12-18T09:15:26;-2.80;99.90
17851;DHT22;9051;51.548;14.348;2022-12-18T09:17:58;-2.80;99.90
17851;DHT22;9051;51.548;14.348;2022-12-18T09:20:30;-2.80;99.90
17851;DHT22;9051;51.548;14.348;2022-12-18T09:23:02;-2.80;99.90
17851;DHT22;9051;51.548;14.348;2022-12-18T09:25:36;-2.80;99.90
17851;DHT22;9051;51.548;14.348;2022-12-18T09:28:11;-2.80;99.90
17851;DHT22;9051;51.548;14.348;2022-12-18T09:30:48;-2.80;99.90
17851;DHT22;9051;51.548;14.348;2022-12-18T09:33:20;-2.80;99.90
17851;DHT22;9051;51.548;14.348;2022-12-18T09:35:52;-2.80;99.90
17851;DHT22;9051;51.548;14.348;2022-12-18T09:38:26;-2.80;99.90
17851;DHT22;9051;51.548;14.348;2022-12-18T09:41:05;-2.80;99.90
17851;DHT22;9051;51.548;14.348;2022-12-18T09:43:47;-2.80;99.90
17851;DHT22;9051;51.548;14.348;2022-12-18T09:46:25;-2.70;99.90
17851;DHT22;9051;51.548;14.348;2022-12-18T09:49:01;-2.70;99.90
17851;DHT22;9051;51.548;14.348;2022-12-18T09:51:39;-2.60;99.90
17851;DHT22;9051;51.548;14.348;2022-12-18T09:54:14;-2.60;99.90
17851;DHT22;9051;51.548;14.348;2022-12-18T09:56:49;-2.60;99.90
17851;DHT22;9051;51.548;14.348;2022-12-18T09:59:33;-2.50;99.90
17851;DHT22;9051;51.548;14.348;2022-12-18T10:02:15;-2.40;99.90
17851;DHT22;9051;51.548;14.348;2022-12-18T10:05:09;-2.40;99.90
17851;DHT22;9051;51.548;14.348;2022-12-18T10:07:50;-2.30;99.90
17851;DHT22;9051;51.548;14.348;2022-12-18T10:10:34;-2.30;99.90
17851;DHT22;9051;51.548;14.348;2022-12-18T10:13:18;-2.20;99.90
17851;DHT22;9051;51.548;14.348;2022-12-18T10:16:01;-2.10;99.90
17851;DHT22;9051;51.548;14.348;2022-12-18T10:18:54;-2.10;99.90
17851;DHT22;9051;51.548;14.348;2022-12-18T10:21:34;-2.10;99.90
17851;DHT22;9051;51.548;14.348;2022-12-18T10:24:17;-2.00;99.90
17851;DHT22;9051;51.548;14.348;2022-12-18T10:26:56;-2.00;99.90
17851;DHT22;9051;51.548;14.348;2022-12-18T10:29:33;-1.90;99.90
17851;DHT22;9051;51.548;14.348;2022-12-18T10:32:07;-2.00;99.90
17851;DHT22;9051;51.548;14.348;2022-12-18T10:34:45;-2.00;99.90
17851;DHT22;9051;51.548;14.348;2022-12-18T10:37:19;-2.00;99.90
17851;DHT22;9051;51.548;14.348;2022-12-18T10:40:07;-1.90;99.90
17851;DHT22;9051;51.548;14.348;2022-12-18T10:42:40;-1.90;99.90
17851;DHT22;9051;51.548;14.348;2022-12-18T10:45:17;-1.90;99.90
17851;DHT22;9051;51.548;14.348;2022-12-18T10:47:49;-1.80;99.90
17851;DHT22;9051;51.548;14.348;2022-12-18T10:50:26;-1.80;99.90
17851;DHT22;9051;51.548;14.348;2022-12-18T10:53:01;-1.80;99.90
17851;DHT22;9051;51.548;14.348;2022-12-18T10:55:37;-1.70;99.90
17851;DHT22;9051;51.548;14.348;2022-12-18T10:58:25;-1.60;99.90
17851;DHT22;9051;51.548;14.348;2022-12-18T11:01:08;-1.50;99.90
17851;DHT22;9051;51.548;14.348;2022-12-18T11:03:43;-1.50;99.90
17851;DHT22;9051;51.548;14.348;2022-12-18T11:06:16;-1.40;99.90
17851;DHT22;9051;51.548;14.348;2022-12-18T11:08:58;-1.30;99.90
17851;DHT22;9051;51.548;14.348;2022-12-18T11:11:32;-1.40;99.90
17851;DHT22;9051;51.548;14.348;2022-12-18T11:14:06;-1.30;99.90
17851;DHT22;9051;51.548;14.348;2022-12-18T11:16:47;-1.20;99.90
17851;DHT22;9051;51.548;14.348;2022-12-18T11:19:32;-1.20;99.90
17851;DHT22;9051;51.548;14.348;2022-12-18T11:22:19;-1.10;99.90
17851;DHT22;9051;51.548;14.348;2022-12-18T11:24:54;-1.00;99.90
17851;DHT22;9051;51.548;14.348;2022-12-18T11:27:28;-1.00;99.90
17851;DHT22;9051;51.548;14.348;2022-12-18T11:30:09;-0.90;99.90
17851;DHT22;9051;51.548;14.348;2022-12-18T11:32:47;-0.80;99.90
17851;DHT22;9051;51.548;14.348;2022-12-18T11:35:26;-0.70;99.90
17851;DHT22;9051;51.548;14.348;2022-12-18T11:38:04;-0.60;99.90
17851;DHT22;9051;51.548;14.348;2022-12-18T11:40:38;-0.50;99.90
17851;DHT22;9051;51.548;14.348;2022-12-18T11:43:16;-0.60;99.90
17851;DHT22;9051;51.548;14.348;2022-12-18T11:45:52;-0.50;99.90
17851;DHT22;9051;51.548;14.348;2022-12-18T11:48:29;-0.50;99.90
17851;DHT22;9051;51.548;14.348;2022-12-18T11:51:08;-0.50;99.90
17851;DHT22;9051;51.548;14.348;2022-12-18T11:53:43;-0.40;99.90
17851;DHT22;9051;51.548;14.348;2022-12-18T11:56:29;-0.40;99.90
17851;DHT22;9051;51.548;14.348;2022-12-18T11:59:11;-0.50;99.90
17851;DHT22;9051;51.548;14.348;2022-12-18T12:01:51;-0.50;99.90
17851;DHT22;9051;51.548;14.348;2022-12-18T12:04:42;-0.50;99.90
17851;DHT22;9051;51.548;14.348;2022-12-18T12:07:33;-0.50;99.90
17851;DHT22;9051;51.548;14.348;2022-12-18T12:10:22;-0.50;99.90
17851;DHT22;9051;51.548;14.348;2022-12-18T12:13:07;-0.40;99.90
17851;DHT22;9051;51.548;14.348;2022-12-18T12:15:48;-0.30;99.90
17851;DHT22;9051;51.548;14.348;2022-12-18T12:18:32;-0.30;99.90
17851;DHT22;9051;51.548;14.348;2022-12-18T12:21:18;-0.20;99.90
17851;DHT22;9051;51.548;14.348;2022-12-18T12:23:59;-0.10;99.90
17851;DHT22;9051;51.548;14.348;2022-12-18T12:26:42;0.00;99.90
17851;DHT22;9051;51.548;14.348;2022-12-18T12:29:30;0.10;99.90
17851;DHT22;9051;51.548;14.348;2022-12-18T12:32:17;0.20;99.90
17851;DHT22;9051;51.548;14.348;2022-12-18T12:35:00;0.40;99.90
17851;DHT22;9051;51.548;14.348;2022-12-18T12:37:47;0.50;99.90
17851;DHT22;9051;51.548;14.348;2022-12-18T12:40:24;0.60;99.90
17851;DHT22;9051;51.548;14.348;2022-12-18T12:43:03;0.60;99.90
17851;DHT22;9051;51.548;14.348;2022-12-18T12:45:48;0.60;99.90
17851;DHT22;9051;51.548;14.348;2022-12-18T12:48:35;0.60;99.90
17851;DHT22;9051;51.548;14.348;2022-12-18T12:51:17;0.60;99.90
17851;DHT22;9051;51.548;14.348;2022-12-18T12:53:54;0.50;99.90
17851;DHT22;9051;51.548;14.348;2022-12-18T12:56:32;0.50;99.90
17851;DHT22;9051;51.548;14.348;2022-12-18T12:59:15;0.60;99.90
17851;DHT22;9051;51.548;14.348;2022-12-18T13:01:54;0.60;99.90
17851;DHT22;9051;51.548;14.348;2022-12-18T13:04:34;0.60;99.90
17851;DHT22;9051;51.548;14.348;2022-12-18T13:07:14;0.50;99.90
17851;DHT22;9051;51.548;14.348;2022-12-18T13:13:09;0.50;99.90
17851;DHT22;9051;51.548;14.348;2022-12-18T13:15:41;0.50;99.90
17851;DHT22;9051;51.548;14.348;2022-12-18T13:18:17;0.50;99.90
17851;DHT22;9051;51.548;14.348;2022-12-18T13:20:53;0.50;99.90
17851;DHT22;9051;51.548;14.348;2022-12-18T13:23:34;0.50;99.90
17851;DHT22;9051;51.548;14.348;2022-12-18T13:26:32;0.50;99.90
17851;DHT22;9051;51.548;14.348;2022-12-18T13:29:07;0.50;99.90
17851;DHT22;9051;51.548;14.348;2022-12-18T13:31:59;0.50;99.90
17851;DHT22;9051;51.548;14.348;2022-12-18T13:34:31;0.50;99.90
17851;DHT22;9051;51.548;14.348;2022-12-18T13:37:41;0.50;99.90
17851;DHT22;9051;51.548;14.348;2022-12-18T13:43:34;0.30;99.90
17851;DHT22;9051;51.548;14.348;2022-12-18T13:46:20;0.10;99.90
17851;DHT22;9051;51.548;14.348;2022-12-18T13:52:45;-0.20;99.90
17851;DHT22;9051;51.548;14.348;2022-12-18T13:55:19;-0.50;99.90
17851;DHT22;9051;51.548;14.348;2022-12-18T13:58:04;-0.60;99.90
17851;DHT22;9051;51.548;14.348;2022-12-18T14:00:42;-0.70;99.90
17851;DHT22;9051;51.548;14.348;2022-12-18T14:03:20;-0.80;99.90
17851;DHT22;9051;51.548;14.348;2022-12-18T14:05:59;-0.90;99.90
17851;DHT22;9051;51.548;14.348;2022-12-18T14:08:36;-1.00;99.90
17851;DHT22;9051;51.548;14.348;2022-12-18T14:11:18;-1.00;99.90
17851;DHT22;9051;51.548;14.348;2022-12-18T14:13:53;-1.10;99.90
17851;DHT22;9051;51.548;14.348;2022-12-18T14:16:27;-1.20;99.90
17851;DHT22;9051;51.548;14.348;2022-12-18T14:19:01;-1.20;99.90
17851;DHT22;9051;51.548;14.348;2022-12-18T14:21:34;-1.30;99.90
17851;DHT22;9051;51.548;14.348;2022-12-18T14:24:13;-1.30;99.90
17851;DHT22;9051;51.548;14.348;2022-12-18T14:26:47;-1.40;99.90
17851;DHT22;9051;51.548;14.348;2022-12-18T14:29:24;-1.50;99.90
17851;DHT22;9051;51.548;14.348;2022-12-18T14:32:07;-1.50;99.90
17851;DHT22;9051;51.548;14.348;2022-12-18T14:34:44;-1.60;99.90
17851;DHT22;9051;51.548;14.348;2022-12-18T14:37:18;-1.70;99.90
17851;DHT22;9051;51.548;14.348;2022-12-18T14:39:53;-1.80;99.90
17851;DHT22;9051;51.548;14.348;2022-12-18T14:42:27;-1.80;99.90
17851;DHT22;9051;51.548;14.348;2022-12-18T14:45:34;-1.90;99.90
17851;DHT22;9051;51.548;14.348;2022-12-18T14:48:15;-1.90;99.90
17851;DHT22;9051;51.548;14.348;2022-12-18T14:50:58;-2.00;99.90
17851;DHT22;9051;51.548;14.348;2022-12-18T14:53:36;-2.10;99.90
17851;DHT22;9051;51.548;14.348;2022-12-18T14:56:16;-2.10;99.90
17851;DHT22;9051;51.548;14.348;2022-12-18T14:58:50;-2.10;99.90
17851;DHT22;9051;51.548;14.348;2022-12-18T15:01:26;-2.20;99.90
17851;DHT22;9051;51.548;14.348;2022-12-18T15:04:03;-2.20;99.90
17851;DHT22;9051;51.548;14.348;2022-12-18T15:06:38;-2.20;99.90
17851;DHT22;9051;51.548;14.348;2022-12-18T15:09:22;-2.30;99.90
17851;DHT22;9051;51.548;14.348;2022-12-18T15:11:57;-2.30;99.90
17851;DHT22;9051;51.548;14.348;2022-12-18T15:14:38;-2.40;99.90
17851;DHT22;9051;51.548;14.348;2022-12-18T15:17:17;-2.40;99.90
17851;DHT22;9051;51.548;14.348;2022-12-18T15:19:52;-2.40;99.90
17851;DHT22;9051;51.548;14.348;2022-12-18T15:22:29;-2.50;99.90
17851;DHT22;9051;51.548;14.348;2022-12-18T15:25:03;-2.60;99.90
17851;DHT22;9051;51.548;14.348;2022-12-18T15:27:51;-2.70;99.90
17851;DHT22;9051;51.548;14.348;2022-12-18T15:30:25;-2.70;99.90
17851;DHT22;9051;51.548;14.348;2022-12-18T15:33:17;-2.70;99.90
17851;DHT22;9051;51.548;14.348;2022-12-18T15:35:58;-2.80;99.90
17851;DHT22;9051;51.548;14.348;2022-12-18T15:38:32;-2.80;99.90
17851;DHT22;9051;51.548;14.348;2022-12-18T15:41:09;-2.80;99.90
17851;DHT22;9051;51.548;14.348;2022-12-18T15:43:44;-2.90;99.90
17851;DHT22;9051;51.548;14.348;2022-12-18T15:46:18;-2.90;99.90
17851;DHT22;9051;51.548;14.348;2022-12-18T15:48:52;-2.90;99.90
17851;DHT22;9051;51.548;14.348;2022-12-18T15:51:27;-3.00;99.90
17851;DHT22;9051;51.548;14.348;2022-12-18T15:54:03;-3.00;99.90
17851;DHT22;9051;51.548;14.348;2022-12-18T15:56:37;-3.00;99.90
17851;DHT22;9051;51.548;14.348;2022-12-18T15:59:23;-3.00;99.90
17851;DHT22;9051;51.548;14.348;2022-12-18T16:01:58;-3.10;99.90
17851;DHT22;9051;51.548;14.348;2022-12-18T16:04:30;-3.10;99.90
17851;DHT22;9051;51.548;14.348;2022-12-18T16:07:02;-3.20;99.90
17851;DHT22;9051;51.548;14.348;2022-12-18T16:09:38;-3.20;99.90
17851;DHT22;9051;51.548;14.348;2022-12-18T16:12:16;-3.30;99.90
17851;DHT22;9051;51.548;14.348;2022-12-18T16:14:50;-3.40;99.90
17851;DHT22;9051;51.548;14.348;2022-12-18T16:17:22;-3.30;99.90
17851;DHT22;9051;51.548;14.348;2022-12-18T16:19:54;-3.30;99.90
17851;DHT22;9051;51.548;14.348;2022-12-18T16:22:28;-3.40;99.90
17851;DHT22;9051;51.548;14.348;2022-12-18T16:25:02;-3.40;99.90
17851;DHT22;9051;51.548;14.348;2022-12-18T16:27:36;-3.40;99.90
17851;DHT22;9051;51.548;14.348;2022-12-18T16:30:12;-3.50;99.90
17851;DHT22;9051;51.548;14.348;2022-12-18T16:32:45;-3.50;99.90
17851;DHT22;9051;51.548;14.348;2022-12-18T16:35:21;-3.60;99.90
17851;DHT22;9051;51.548;14.348;2022-12-18T16:37:53;-3.70;99.90
17851;DHT22;9051;51.548;14.348;2022-12-18T16:40:26;-3.70;99.90
17851;DHT22;9051;51.548;14.348;2022-12-18T16:43:00;-3.70;99.90